Time;durP1;ratioP1;P1;durP2;ratioP2;P2;SDS_P1;SDS_P2;PMS_P1;PMS_P2;Temp;Humidity;BMP_temperature;BMP_pressure;BME280_temperature;BME280_humidity;BME280_pressure;Samples;Min_cycle;Max_cycle;Signal;HPM_P1;HPM_P2
2023/05/25 00:02:06;;;;;;;6.78;3.50;;;17.70;69.60;;;;;;3959431;29;20423;-61
2023/05/25 00:04:48;;;;;;;8.82;3.70;;;17.70;69.70;;;;;;3958918;29;20076;-61
2023/05/25 00:07:29;;;;;;;8.82;3.97;;;17.70;69.60;;;;;;3958345;29;20073;-61
2023/05/25 00:10:11;;;;;;;7.53;3.30;;;17.70;69.60;;;;;;3958878;29;20066;-61
2023/05/25 00:12:52;;;;;;;;;;;17.70;69.60;;;;;;3970376;29;20151;-61
2023/05/25 00:15:34;;;;;;;7.32;3.63;;;17.70;69.80;;;;;;3970700;29;19932;-62
2023/05/25 00:18:15;;;;;;;9.20;3.72;;;17.70;70.30;;;;;;3970530;29;20138;-62
2023/05/25 00:20:56;;;;;;;8.07;4.03;;;17.60;70.00;;;;;;3970290;29;20065;-61
2023/05/25 00:23:37;;;;;;;4.30;3.30;;;17.60;70.10;;;;;;3957641;29;20069;-61
2023/05/25 00:26:18;;;;;;;5.93;4.05;;;17.60;69.90;;;;;;3970070;29;20054;-64
2023/05/25 00:29:00;;;;;;;6.60;3.33;;;17.60;69.90;;;;;;3970067;29;20419;-62
2023/05/25 00:31:42;;;;;;;6.85;3.70;;;17.60;69.90;;;;;;3972569;29;20090;-62
2023/05/25 00:34:23;;;;;;;8.65;3.60;;;17.60;70.00;;;;;;3973130;29;20050;-62
2023/05/25 00:37:04;;;;;;;9.32;3.72;;;17.60;70.00;;;;;;3973026;29;20062;-61
2023/05/25 00:39:45;;;;;;;10.00;4.10;;;17.60;70.10;;;;;;3973375;29;20391;-62
2023/05/25 00:42:27;;;;;;;9.77;3.88;;;17.50;70.00;;;;;;3973133;29;20065;-61
2023/05/25 00:45:10;;;;;;;9.98;3.15;;;17.60;70.00;;;;;;3973183;29;20065;-60
2023/05/25 00:47:54;;;;;;;7.80;3.78;;;17.50;70.00;;;;;;3973035;29;20419;-62
2023/05/25 00:50:39;;;;;;;8.60;3.88;;;17.60;69.90;;;;;;3973088;29;20061;-62
2023/05/25 00:53:21;;;;;;;7.93;3.65;;;17.60;69.90;;;;;;3972683;29;20061;-62
2023/05/25 00:56:03;;;;;;;;;;;17.50;70.00;;;;;;3972027;29;20427;-61
2023/05/25 00:58:46;;;;;;;7.22;3.83;;;17.50;70.10;;;;;;3972995;29;20039;-61
2023/05/25 01:01:32;;;;;;;7.00;3.60;;;17.50;70.70;;;;;;3961527;29;20073;-61
2023/05/25 01:04:18;;;;;;;9.52;4.18;;;17.50;70.50;;;;;;3957459;29;20459;-61
2023/05/25 01:07:00;;;;;;;12.98;4.50;;;17.50;70.30;;;;;;3957026;29;20058;-62
2023/05/25 01:09:44;;;;;;;7.30;4.10;;;17.50;70.30;;;;;;3959901;29;20066;-61
2023/05/25 01:12:26;;;;;;;6.45;3.55;;;17.50;70.30;;;;;;3972652;29;20061;-62
2023/05/25 01:15:10;;;;;;;8.43;4.07;;;17.50;70.30;;;;;;3971903;29;20552;-61
2023/05/25 01:17:52;;;;;;;6.10;3.53;;;17.40;70.30;;;;;;3972202;29;20142;-61
2023/05/25 01:20:35;;;;;;;7.28;3.72;;;17.50;70.40;;;;;;3972248;29;20061;-61
2023/05/25 01:26:58;;;;;;;8.13;3.50;;;17.40;70.00;;;;;;3971565;29;20057;-61
2023/05/25 01:29:41;;;;;;;8.15;3.67;;;17.40;70.50;;;;;;3972003;29;20113;-62
2023/05/25 01:32:23;;;;;;;8.25;3.95;;;17.40;70.40;;;;;;3972793;29;20065;-62
2023/05/25 01:35:06;;;;;;;9.05;4.22;;;17.40;70.40;;;;;;3961596;29;20061;-62
2023/05/25 01:37:48;;;;;;;9.73;4.18;;;17.40;70.40;;;;;;3972799;29;20058;-62
2023/05/25 01:40:31;;;;;;;9.48;4.22;;;17.40;70.40;;;;;;3961422;29;20135;-61
2023/05/25 01:43:14;;;;;;;6.25;3.65;;;17.40;70.60;;;;;;3970571;29;20053;-61
2023/05/25 01:46:02;;;;;;;6.68;3.58;;;17.40;70.50;;;;;;3961339;29;20074;-60
2023/05/25 01:48:52;;;;;;;10.23;3.97;;;17.40;70.50;;;;;;3971443;29;20079;-61
2023/05/25 01:51:39;;;;;;;8.38;4.18;;;17.40;70.50;;;;;;3957138;29;20400;-61
2023/05/25 01:54:21;;;;;;;5.15;3.67;;;17.40;70.50;;;;;;3956420;29;20062;-61
2023/05/25 01:57:07;;;;;;;4.82;3.53;;;17.40;70.60;;;;;;3964517;29;20510;-62
2023/05/25 01:59:51;;;;;;;7.68;3.78;;;17.30;70.30;;;;;;3970652;29;20519;-61
2023/05/25 02:02:33;;;;;;;9.70;3.85;;;17.30;70.40;;;;;;3946240;30;20066;-61
2023/05/25 02:05:14;;;;;;;;;;;17.30;70.50;;;;;;3957443;29;20050;-61
2023/05/25 02:07:55;;;;;;;10.43;3.97;;;17.30;70.70;;;;;;3959195;29;19936;-61
2023/05/25 02:10:36;;;;;;;5.93;3.60;;;17.30;71.20;;;;;;3971467;29;20065;-61
2023/05/25 02:13:19;;;;;;;6.65;4.32;;;17.30;71.00;;;;;;3972459;29;20187;-53
2023/05/25 02:16:01;;;;;;;5.85;3.80;;;17.30;70.90;;;;;;3960643;29;20057;-53
2023/05/25 02:18:43;;;;;;;;;;;17.30;70.80;;;;;;3972054;29;20183;-52
2023/05/25 02:21:24;;;;;;;4.70;2.90;;;17.30;70.90;;;;;;3971495;29;20059;-52
2023/05/25 02:24:08;;;;;;;5.47;3.45;;;17.30;71.40;;;;;;3972060;29;20131;-61
2023/05/25 02:26:49;;;;;;;8.02;3.40;;;17.30;71.20;;;;;;3971592;29;20411;-62
2023/05/25 02:29:31;;;;;;;7.55;3.40;;;17.20;71.00;;;;;;3970330;29;20061;-62
2023/05/25 02:32:13;;;;;;;8.30;3.60;;;17.20;71.00;;;;;;3960653;29;20198;-61
2023/05/25 02:34:55;;;;;;;4.75;3.47;;;17.20;71.00;;;;;;3971971;29;20073;-61
2023/05/25 02:37:36;;;;;;;6.13;3.80;;;17.20;71.00;;;;;;3971605;29;20075;-61
2023/05/25 02:40:17;;;;;;;7.40;3.85;;;17.20;71.10;;;;;;3960343;29;20419;-61
2023/05/25 02:42:59;;;;;;;7.30;4.20;;;17.20;71.20;;;;;;3970772;29;20115;-62
2023/05/25 02:45:42;;;;;;;8.27;5.03;;;17.20;71.10;;;;;;3970513;29;20103;-62
2023/05/25 02:48:23;;;;;;;6.28;3.60;;;17.20;71.10;;;;;;3945578;29;20224;-61
2023/05/25 02:51:04;;;;;;;6.40;3.85;;;17.20;71.10;;;;;;3956324;29;20456;-60
2023/05/25 02:53:45;;;;;;;8.43;3.85;;;17.20;71.00;;;;;;3955053;29;20062;-61
2023/05/25 02:56:27;;;;;;;6.05;3.90;;;17.20;72.00;;;;;;3961108;29;20468;-61
2023/05/25 02:59:09;;;;;;;6.47;3.53;;;17.20;71.20;;;;;;3970563;29;20058;-61
2023/05/25 03:01:52;;;;;;;8.10;4.10;;;17.20;71.00;;;;;;3971007;29;20065;-60
2023/05/25 03:04:36;;;;;;;6.22;3.63;;;17.20;71.00;;;;;;3971358;29;20074;-60
2023/05/25 03:07:18;;;;;;;5.45;3.55;;;17.20;71.00;;;;;;3959687;29;20067;-62
2023/05/25 03:09:59;;;;;;;7.97;4.15;;;17.20;71.10;;;;;;3971157;29;20222;-61
2023/05/25 03:12:40;;;;;;;6.93;3.97;;;17.20;71.10;;;;;;3955772;29;20415;-51
2023/05/25 03:15:21;;;;;;;5.85;3.50;;;17.20;71.20;;;;;;3964631;29;20728;-61
2023/05/25 03:18:05;;;;;;;6.82;3.65;;;17.10;71.10;;;;;;3970578;29;20062;-61
2023/05/25 03:20:50;;;;;;;3.83;3.20;;;17.10;71.10;;;;;;3960015;29;20069;-61
2023/05/25 03:23:31;;;;;;;5.00;3.75;;;17.10;71.10;;;;;;3969852;29;20058;-61
2023/05/25 03:26:16;;;;;;;9.90;3.97;;;17.10;71.10;;;;;;3966250;29;20524;-51
2023/05/25 03:28:59;;;;;;;8.27;4.13;;;17.10;71.10;;;;;;3959711;29;20587;-52
2023/05/25 03:31:46;;;;;;;4.55;3.42;;;17.10;71.70;;;;;;3970383;29;20065;-52
2023/05/25 03:34:29;;;;;;;5.68;4.28;;;17.10;71.20;;;;;;3959537;29;20149;-52
2023/05/25 03:37:10;;;;;;;6.18;3.80;;;17.10;71.10;;;;;;3959743;29;20061;-49
2023/05/25 03:39:51;;;;;;;6.00;3.33;;;17.10;71.20;;;;;;3970112;29;20054;-51
2023/05/25 03:42:32;;;;;;;6.68;3.90;;;17.10;71.20;;;;;;3970104;29;20057;-51
2023/05/25 03:45:13;;;;;;;4.22;3.05;;;17.10;71.30;;;;;;3964408;29;20058;-51
2023/05/25 03:47:55;;;;;;;4.63;3.63;;;17.10;71.30;;;;;;3959181;29;20516;-52
2023/05/25 03:50:39;;;;;;;5.47;3.35;;;17.10;71.40;;;;;;3971086;29;20050;-50
2023/05/25 03:53:20;;;;;;;3.47;3.00;;;17.00;71.30;;;;;;3970862;29;20062;-52
2023/05/25 03:56:01;;;;;;;;;;;17.10;71.50;;;;;;3970735;29;20247;-57
2023/05/25 03:58:42;;;;;;;6.90;3.67;;;17.00;71.40;;;;;;3970038;29;20297;-60
2023/05/25 04:01:25;;;;;;;11.80;4.85;;;17.00;72.80;;;;;;3970498;29;20062;-60
2023/05/25 04:04:06;;;;;;;9.52;4.70;;;17.00;72.60;;;;;;3970221;29;20510;-61
2023/05/25 04:06:50;;;;;;;8.68;4.45;;;17.00;71.80;;;;;;3961677;29;20058;-61
2023/05/25 04:09:31;;;;;;;7.18;4.10;;;17.00;71.70;;;;;;3972404;29;20476;-59
2023/05/25 04:12:13;;;;;;;11.30;5.25;;;17.00;71.60;;;;;;3973730;29;20054;-60
2023/05/25 04:14:55;;;;;;;6.25;4.43;;;17.00;72.40;;;;;;3971952;29;20062;-60
2023/05/25 04:17:38;;;;;;;8.15;4.53;;;17.00;71.50;;;;;;3972530;29;20057;-60
2023/05/25 04:20:19;;;;;;;7.72;4.32;;;17.00;71.50;;;;;;3973167;29;20407;-61
2023/05/25 04:23:02;;;;;;;4.88;4.25;;;17.00;71.50;;;;;;3972318;29;20062;-60
2023/05/25 04:25:44;;;;;;;10.00;4.65;;;17.10;72.10;;;;;;3972574;29;20168;-60
2023/05/25 04:28:27;;;;;;;7.07;4.13;;;17.10;72.20;;;;;;3973614;29;20065;-60
2023/05/25 04:31:14;;;;;;;8.20;3.88;;;17.20;72.20;;;;;;3972901;29;20523;-60
2023/05/25 04:34:14;;;;;;;8.50;4.32;;;17.20;73.10;;;;;;3980893;29;20066;-60
2023/05/25 04:37:04;;;;;;;8.40;4.47;;;17.20;72.50;;;;;;3982851;29;20412;-61
2023/05/25 04:39:47;;;;;;;8.63;4.45;;;17.20;72.60;;;;;;3982835;29;20192;-60
2023/05/25 04:42:28;;;;;;;8.38;4.47;;;17.20;72.60;;;;;;3971012;29;20058;-60
2023/05/25 04:45:10;;;;;;;6.30;4.32;;;17.20;72.60;;;;;;3972611;29;20200;-61
2023/05/25 04:47:51;;;;;;;10.43;4.70;;;17.20;72.60;;;;;;3972156;29;20073;-60
2023/05/25 04:50:32;;;;;;;9.73;4.55;;;17.20;72.50;;;;;;3972485;29;20069;-50
2023/05/25 04:53:13;;;;;;;10.68;5.32;;;17.20;72.40;;;;;;3972074;29;20110;-49
2023/05/25 04:55:56;;;;;;;10.55;5.13;;;17.20;72.20;;;;;;3972046;29;20081;-52
2023/05/25 04:58:37;;;;;;;10.30;4.57;;;17.20;72.20;;;;;;3971756;29;20073;-51
2023/05/25 05:01:19;;;;;;;11.10;5.07;;;17.20;73.20;;;;;;3967827;29;20066;-49
2023/05/25 05:04:01;;;;;;;10.55;5.15;;;17.20;73.30;;;;;;3967172;29;20161;-52
2023/05/25 05:06:42;;;;;;;9.02;5.20;;;17.20;72.60;;;;;;3949318;29;20128;-49
2023/05/25 05:09:29;;;;;;;11.45;5.18;;;17.20;72.70;;;;;;3945704;29;20055;-51
2023/05/25 05:12:14;;;;;;;9.30;4.50;;;17.20;72.90;;;;;;3957463;29;20066;-48
2023/05/25 05:15:04;;;;;;;11.77;5.10;;;17.20;73.90;;;;;;3954314;29;20064;-49
2023/05/25 05:17:45;;;;;;;11.52;4.57;;;17.20;73.10;;;;;;3915187;30;20058;-52
2023/05/25 05:20:27;;;;;;;18.13;5.30;;;17.20;73.40;;;;;;3945591;30;20062;-52
2023/05/25 05:23:08;;;;;;;12.00;4.82;;;17.30;74.00;;;;;;3946314;30;20062;-49
2023/05/25 05:25:50;;;;;;;9.55;5.00;;;17.30;74.00;;;;;;3932646;30;20080;-49
2023/05/25 05:28:32;;;;;;;12.50;4.65;;;17.30;73.70;;;;;;3960919;29;20062;-49
2023/05/25 05:31:16;;;;;;;11.05;5.10;;;17.30;73.50;;;;;;3956830;29;20058;-51
2023/05/25 05:33:56;;;;;;;9.57;4.43;;;17.20;73.50;;;;;;3967679;29;20465;-52
2023/05/25 05:36:38;;;;;;;7.40;4.53;;;17.20;73.70;;;;;;3956995;29;20062;-51
2023/05/25 05:39:36;;;;;;;10.18;4.70;;;17.20;74.00;;;;;;3965644;29;20184;-51
2023/05/25 05:42:18;;;;;;;13.05;4.72;;;17.20;74.40;;;;;;3982410;29;21051;-51
2023/05/25 05:45:00;;;;;;;13.98;4.85;;;17.20;74.70;;;;;;3951268;29;20416;-50
2023/05/25 05:47:42;;;;;;;15.13;4.70;;;17.10;74.80;;;;;;3946848;29;20144;-50
2023/05/25 05:50:23;;;;;;;12.65;4.97;;;17.10;74.90;;;;;;3952818;29;20051;-53
2023/05/25 05:53:05;;;;;;;9.88;4.97;;;17.10;75.00;;;;;;3946873;29;20528;-51
2023/05/25 05:55:46;;;;;;;;;;;17.10;75.50;;;;;;3953044;29;20200;-50
2023/05/25 05:58:31;;;;;;;11.32;5.03;;;17.20;75.50;;;;;;3943466;29;19933;-61
2023/05/25 06:01:14;;;;;;;13.02;3.85;;;17.20;75.80;;;;;;3916160;30;20113;-61
2023/05/25 06:03:55;;;;;;;11.80;3.92;;;17.20;75.80;;;;;;3938309;30;20071;-62
2023/05/25 06:06:37;;;;;;;10.38;3.75;;;17.20;75.40;;;;;;3930380;30;20192;-61
2023/05/25 06:09:18;;;;;;;9.00;3.92;;;17.20;74.80;;;;;;3938051;29;20063;-61
2023/05/25 06:12:00;;;;;;;11.38;3.78;;;17.20;74.50;;;;;;3941078;29;20059;-62
2023/05/25 06:14:42;;;;;;;10.00;3.40;;;17.20;74.10;;;;;;3933376;30;20090;-61
2023/05/25 06:17:24;;;;;;;13.55;3.92;;;17.20;73.80;;;;;;3938274;29;20531;-52
2023/05/25 06:20:07;;;;;;;11.07;3.78;;;17.20;73.50;;;;;;3943070;29;20528;-61
2023/05/25 06:22:49;;;;;;;9.70;3.33;;;17.20;73.30;;;;;;3939169;29;20409;-61
2023/05/25 06:25:32;;;;;;;14.75;3.30;;;17.20;73.10;;;;;;3941566;29;20121;-61
2023/05/25 06:28:13;;;;;;;16.88;4.70;;;17.20;73.20;;;;;;3944398;29;20062;-61
2023/05/25 06:30:54;;;;;;;;;;;17.20;73.20;;;;;;3957204;29;20062;-61
2023/05/25 06:33:37;;;;;;;16.17;4.00;;;17.20;72.60;;;;;;3952193;29;19936;-61
2023/05/25 06:36:19;;;;;;;12.40;4.00;;;17.20;72.50;;;;;;3955025;29;20415;-62
2023/05/25 06:39:00;;;;;;;13.90;3.75;;;17.20;72.40;;;;;;3960016;29;20148;-61
2023/05/25 06:41:42;;;;;;;14.55;4.22;;;17.20;71.80;;;;;;3955220;29;20080;-61
2023/05/25 06:44:23;;;;;;;13.15;4.53;;;17.20;71.50;;;;;;3953073;29;20077;-61
2023/05/25 06:47:06;;;;;;;12.82;4.15;;;17.20;71.60;;;;;;3957325;29;20062;-61
2023/05/25 06:49:49;;;;;;;14.85;3.92;;;17.20;71.60;;;;;;3944583;29;20062;-61
2023/05/25 06:52:31;;;;;;;16.25;4.20;;;17.10;71.50;;;;;;3948065;29;20975;-53
2023/05/25 06:55:12;;;;;;;17.23;5.07;;;17.10;71.60;;;;;;3958457;29;20058;-62
2023/05/25 06:57:53;;;;;;;16.02;4.47;;;17.10;71.90;;;;;;3945539;29;20066;-62
2023/05/25 07:00:34;;;;;;;18.02;5.53;;;17.10;71.20;;;;;;3948727;29;20062;-53
2023/05/25 07:03:15;;;;;;;16.13;4.85;;;17.20;72.30;;;;;;3964755;29;20064;-53
2023/05/25 07:05:58;;;;;;;16.58;4.35;;;17.20;71.40;;;;;;3962066;29;20062;-51
2023/05/25 07:08:39;;;;;;;17.73;4.75;;;17.20;70.70;;;;;;3961829;29;20066;-62
2023/05/25 07:11:22;;;;;;;15.45;4.70;;;17.30;70.00;;;;;;3959418;29;20078;-52
2023/05/25 07:14:03;;;;;;;17.48;5.32;;;17.30;69.30;;;;;;3963924;29;20066;-62
2023/05/25 07:16:44;;;;;;;18.60;5.07;;;17.30;69.60;;;;;;3959330;29;20071;-62
2023/05/25 07:19:26;;;;;;;19.65;4.75;;;17.30;68.70;;;;;;3961817;29;20901;-50
2023/05/25 07:22:08;;;;;;;20.20;4.72;;;17.30;67.80;;;;;;3963384;29;20062;-51
2023/05/25 07:24:50;;;;;;;15.00;4.63;;;17.30;67.40;;;;;;3951198;29;20069;-62
2023/05/25 07:27:32;;;;;;;;;;;17.40;66.40;;;;;;3964420;29;20069;-49
2023/05/25 07:30:13;;;;;;;;;;;17.40;66.40;;;;;;3964867;29;19936;-50
2023/05/25 07:32:55;;;;;;;21.10;5.45;;;17.40;65.60;;;;;;3960434;29;19932;-63
2023/05/25 07:35:36;;;;;;;19.65;5.07;;;17.40;65.80;;;;;;3958435;29;20439;-62
2023/05/25 07:38:19;;;;;;;18.38;5.15;;;17.40;65.40;;;;;;3959029;29;20404;-62
2023/05/25 07:41:01;;;;;;;15.65;4.30;;;17.50;64.60;;;;;;3959375;29;20066;-62
2023/05/25 07:43:42;;;;;;;19.95;5.03;;;17.50;64.50;;;;;;3950138;29;20560;-62
2023/05/25 07:46:24;;;;;;;19.67;4.55;;;17.50;64.20;;;;;;3958470;29;20062;-50
2023/05/25 07:49:10;;;;;;;18.35;4.97;;;17.50;65.10;;;;;;3960405;29;20276;-50
2023/05/25 07:51:51;;;;;;;14.93;4.72;;;17.60;64.90;;;;;;3958067;29;20054;-51
2023/05/25 07:54:38;;;;;;;20.77;5.43;;;17.60;63.80;;;;;;3961252;29;20195;-61
2023/05/25 07:57:19;;;;;;;17.48;4.82;;;17.60;63.90;;;;;;3962514;29;20126;-62
2023/05/25 08:00:00;;;;;;;25.15;5.63;;;17.70;63.60;;;;;;3953288;29;20070;-61
2023/05/25 08:02:42;;;;;;;21.90;5.55;;;17.70;63.40;;;;;;3956574;29;20123;-53
2023/05/25 08:05:23;;;;;;;18.55;5.45;;;17.70;63.60;;;;;;3963654;29;20062;-54
2023/05/25 08:08:04;;;;;;;19.13;4.80;;;17.70;63.70;;;;;;3959105;29;20069;-55
2023/05/25 08:10:47;;;;;;;20.02;4.45;;;17.70;64.30;;;;;;3959175;29;20070;-59
2023/05/25 08:13:28;;;;;;;19.83;5.68;;;17.70;64.50;;;;;;3959390;29;20101;-59
2023/05/25 08:16:09;;;;;;;18.25;5.20;;;17.70;64.60;;;;;;3955730;29;20061;-53
2023/05/25 08:18:51;;;;;;;22.52;4.95;;;17.80;65.10;;;;;;3958518;29;20082;-60
2023/05/25 08:21:33;;;;;;;14.35;4.88;;;17.80;64.60;;;;;;3954941;29;20054;-59
2023/05/25 08:24:14;;;;;;;14.18;4.32;;;17.80;65.00;;;;;;3954659;29;20062;-60
2023/05/25 08:26:57;;;;;;;14.48;4.50;;;17.80;63.70;;;;;;3968065;29;20050;-59
2023/05/25 08:29:38;;;;;;;21.27;5.30;;;17.80;63.60;;;;;;3970130;29;20057;-59
2023/05/25 08:32:19;;;;;;;18.40;5.13;;;17.80;64.00;;;;;;3959138;29;20066;-59
2023/05/25 08:35:02;;;;;;;20.60;5.00;;;17.90;63.30;;;;;;3970182;29;20115;-52
2023/05/25 08:37:43;;;;;;;15.85;5.25;;;17.90;62.80;;;;;;3970496;29;20070;-50
2023/05/25 08:40:28;;;;;;;21.77;5.72;;;17.90;62.90;;;;;;3970433;29;20518;-60
2023/05/25 08:43:10;;;;;;;24.45;5.15;;;17.90;63.20;;;;;;3970518;29;20211;-59
2023/05/25 08:45:52;;;;;;;20.20;5.55;;;17.80;63.30;;;;;;3970987;29;20061;-50
2023/05/25 08:48:36;;;;;;;20.08;4.50;;;17.80;63.70;;;;;;3970747;29;20058;-53
2023/05/25 08:51:22;;;;;;;18.27;4.85;;;17.90;62.90;;;;;;3970852;29;20069;-49
2023/05/25 08:54:07;;;;;;;22.40;6.75;;;17.90;62.60;;;;;;3962066;29;20061;-61
2023/05/25 08:56:51;;;;;;;17.58;4.50;;;17.90;63.00;;;;;;3973116;29;20054;-60
2023/05/25 08:59:37;;;;;;;17.90;5.15;;;18.00;62.80;;;;;;3971975;29;20579;-53
2023/05/25 09:02:26;;;;;;;16.65;4.30;;;18.00;62.20;;;;;;3972895;29;20074;-53
2023/05/25 09:05:08;;;;;;;16.83;4.60;;;18.10;61.40;;;;;;3974485;29;20053;-52
2023/05/25 09:07:52;;;;;;;20.77;4.35;;;18.00;61.20;;;;;;3972428;29;20058;-58
2023/05/25 09:10:35;;;;;;;25.40;5.35;;;18.10;60.60;;;;;;3974467;29;20062;-51
2023/05/25 09:13:17;;;;;;;16.08;4.80;;;18.10;60.60;;;;;;3972619;29;20053;-52
2023/05/25 09:16:04;;;;;;;13.88;3.97;;;18.10;60.30;;;;;;3973021;29;20487;-59
2023/05/25 09:18:45;;;;;;;16.30;4.70;;;18.10;60.20;;;;;;3972691;29;20191;-59
2023/05/25 09:21:26;;;;;;;16.27;5.13;;;18.20;60.00;;;;;;3972630;29;20138;-59
2023/05/25 09:24:08;;;;;;;19.85;4.45;;;18.10;60.00;;;;;;3972856;29;20106;-59
2023/05/25 09:26:49;;;;;;;22.33;5.38;;;18.10;59.90;;;;;;3972184;29;20176;-51
2023/05/25 09:29:31;;;;;;;;;;;18.20;60.20;;;;;;3972723;29;20528;-52
2023/05/25 09:32:14;;;;;;;20.95;5.20;;;18.20;60.30;;;;;;3971954;29;19932;-59
2023/05/25 09:34:56;;;;;;;14.05;4.53;;;18.10;60.70;;;;;;3960758;29;20197;-59
2023/05/25 09:37:37;;;;;;;19.30;4.65;;;18.10;60.60;;;;;;3972195;29;20053;-59
2023/05/25 09:40:20;;;;;;;17.17;4.07;;;18.20;60.10;;;;;;3972578;29;20104;-59
2023/05/25 09:43:02;;;;;;;18.00;4.53;;;18.20;60.00;;;;;;3972206;29;20070;-59
2023/05/25 09:45:43;;;;;;;15.77;4.60;;;18.20;60.30;;;;;;3972270;29;20080;-53
2023/05/25 09:48:28;;;;;;;;;;;18.20;60.10;;;;;;3974077;29;20093;-53
2023/05/25 09:51:09;;;;;;;19.10;4.72;;;18.20;59.50;;;;;;3972163;29;20062;-52
2023/05/25 09:53:50;;;;;;;;;;;18.20;59.40;;;;;;3971923;29;20061;-52
2023/05/25 09:56:32;;;;;;;27.15;5.25;;;18.20;59.00;;;;;;3971677;29;19936;-50
2023/05/25 09:59:14;;;;;;;16.60;4.63;;;18.20;59.10;;;;;;3972663;29;20057;-61
2023/05/25 10:01:57;;;;;;;19.50;5.60;;;18.20;59.60;;;;;;3972825;29;20194;-60
2023/05/25 10:04:40;;;;;;;18.83;5.00;;;18.20;59.40;;;;;;3968957;29;20061;-60
2023/05/25 10:07:22;;;;;;;21.77;5.95;;;18.20;59.40;;;;;;3970939;29;20066;-59
2023/05/25 10:10:07;;;;;;;22.27;5.50;;;18.20;59.50;;;;;;3957005;29;20523;-49
2023/05/25 10:12:52;;;;;;;17.63;4.85;;;18.20;59.50;;;;;;3956879;29;20155;-50
2023/05/25 10:15:35;;;;;;;20.42;5.53;;;18.20;59.50;;;;;;3963365;29;20424;-59
2023/05/25 10:18:17;;;;;;;19.23;4.68;;;18.20;59.50;;;;;;3971638;29;20522;-58
2023/05/25 10:21:03;;;;;;;18.83;5.30;;;18.20;59.90;;;;;;3970929;29;20062;-60
2023/05/25 10:23:47;;;;;;;24.48;5.53;;;18.20;59.50;;;;;;3971409;29;20054;-59
2023/05/25 10:26:33;;;;;;;18.83;5.18;;;18.20;59.40;;;;;;3957606;29;20066;-49
2023/05/25 10:29:14;;;;;;;19.98;4.80;;;18.20;59.60;;;;;;3973502;29;20448;-51
2023/05/25 10:31:56;;;;;;;17.95;4.95;;;18.20;59.70;;;;;;3971574;29;20061;-59
2023/05/25 10:34:38;;;;;;;23.77;5.53;;;18.20;59.60;;;;;;3971255;29;20510;-59
2023/05/25 10:37:26;;;;;;;17.98;5.25;;;18.20;59.40;;;;;;3971709;29;20062;-54
2023/05/25 10:40:08;;;;;;;25.20;5.40;;;18.30;59.70;;;;;;3971209;29;20147;-52
2023/05/25 10:42:59;;;;;;;21.02;6.20;;;18.30;59.90;;;;;;3968125;29;20416;-51
2023/05/25 10:45:41;;;;;;;19.13;4.50;;;18.20;59.90;;;;;;3970859;29;20049;-48
2023/05/25 10:48:23;;;;;;;19.25;5.88;;;18.30;60.40;;;;;;3971302;29;20066;-52
2023/05/25 10:51:05;;;;;;;26.75;5.53;;;18.20;60.40;;;;;;3971511;29;20127;-50
2023/05/25 10:54:00;;;;;;;20.70;5.25;;;18.20;60.50;;;;;;3973447;29;20054;-54
2023/05/25 10:57:10;;;;;;;21.17;5.57;;;18.20;60.30;;;;;;3971040;29;20115;-53
2023/05/25 10:59:54;;;;;;;24.08;5.55;;;18.20;60.50;;;;;;3970905;29;20149;-53
2023/05/25 11:02:50;;;;;;;25.40;5.70;;;18.20;60.90;;;;;;3959151;29;20065;-50
2023/05/25 11:05:37;;;;;;;21.02;5.32;;;18.20;60.70;;;;;;3970618;29;20057;-59
2023/05/25 11:08:22;;;;;;;19.52;5.55;;;18.20;60.50;;;;;;3970942;29;20131;-59
2023/05/25 11:11:04;;;;;;;28.20;5.47;;;18.10;60.50;;;;;;3971223;29;20046;-52
2023/05/25 11:13:46;;;;;;;21.27;5.10;;;18.20;60.50;;;;;;3971726;29;20511;-51
2023/05/25 11:16:34;;;;;;;21.95;5.43;;;18.10;60.50;;;;;;3971347;29;20061;-51
2023/05/25 11:19:16;;;;;;;18.65;4.63;;;18.20;60.30;;;;;;3970535;29;20534;-50
2023/05/25 11:22:12;;;;;;;;;;;18.10;60.60;;;;;;3971364;29;20056;-60
2023/05/25 11:24:53;;;;;;;17.50;4.65;;;18.20;60.60;;;;;;3970970;29;19932;-50
2023/05/25 11:27:46;;;;;;;26.42;5.25;;;18.20;60.10;;;;;;3970230;29;20061;-50
2023/05/25 11:30:28;;;;;;;27.20;6.10;;;18.20;59.70;;;;;;3970649;29;20169;-59
2023/05/25 11:33:09;;;;;;;19.52;5.95;;;18.20;60.10;;;;;;3971019;29;20103;-59
2023/05/25 11:35:54;;;;;;;24.70;5.32;;;18.20;59.80;;;;;;3971506;29;20062;-59
2023/05/25 11:38:36;;;;;;;23.02;5.57;;;18.20;60.00;;;;;;3971637;29;20196;-59
2023/05/25 11:41:17;;;;;;;15.32;4.88;;;18.20;59.80;;;;;;3956002;29;20190;-59
2023/05/25 11:44:05;;;;;;;21.80;5.68;;;18.20;59.90;;;;;;3955763;29;20104;-59
2023/05/25 11:46:47;;;;;;;24.73;5.07;;;18.30;59.80;;;;;;3956227;29;20400;-59
2023/05/25 11:49:28;;;;;;;17.15;5.47;;;18.30;60.00;;;;;;3959625;29;20068;-59
2023/05/25 11:52:10;;;;;;;25.40;5.57;;;18.30;59.90;;;;;;3959590;29;20058;-49
2023/05/25 11:54:51;;;;;;;;;;;18.30;60.20;;;;;;3971869;29;20155;-49
2023/05/25 11:57:33;;;;;;;23.17;6.03;;;18.30;60.10;;;;;;3972852;29;19950;-58
2023/05/25 12:00:25;;;;;;;21.52;6.20;;;18.40;59.80;;;;;;3960428;29;20062;-59
2023/05/25 12:03:09;;;;;;;23.52;4.38;;;18.40;59.60;;;;;;3970964;29;20074;-58
2023/05/25 12:05:50;;;;;;;13.07;4.95;;;18.40;59.50;;;;;;3970981;29;20199;-60
2023/05/25 12:08:34;;;;;;;21.98;5.60;;;18.40;59.00;;;;;;3971051;29;20065;-50
2023/05/25 12:11:15;;;;;;;17.67;4.45;;;18.40;58.60;;;;;;3970565;29;20074;-49
2023/05/25 12:13:57;;;;;;;14.88;4.55;;;18.50;59.20;;;;;;3959376;29;20464;-53
2023/05/25 12:16:41;;;;;;;16.08;5.03;;;18.50;59.00;;;;;;3970076;29;20395;-50
2023/05/25 12:19:22;;;;;;;15.20;4.45;;;18.50;58.80;;;;;;3982959;29;20111;-59
2023/05/25 12:22:04;;;;;;;20.52;4.85;;;18.50;58.70;;;;;;3970831;29;20526;-59
2023/05/25 12:24:45;;;;;;;22.05;5.57;;;18.50;58.60;;;;;;3970357;29;20054;-60
2023/05/25 12:27:26;;;;;;;15.73;4.53;;;18.50;58.70;;;;;;3972520;29;20065;-59
2023/05/25 12:30:09;;;;;;;16.88;4.72;;;18.50;58.30;;;;;;3973392;29;20605;-59
2023/05/25 12:33:00;;;;;;;21.98;5.20;;;18.50;58.00;;;;;;3973121;29;20195;-51
2023/05/25 12:35:45;;;;;;;20.35;5.47;;;18.60;58.10;;;;;;3972536;29;20057;-59
2023/05/25 12:38:26;;;;;;;24.45;5.47;;;18.60;58.40;;;;;;3963600;29;20058;-59
2023/05/25 12:41:08;;;;;;;19.10;5.40;;;18.60;58.20;;;;;;3972804;29;20049;-59
2023/05/25 12:43:49;;;;;;;;;;;18.60;58.30;;;;;;3974997;29;20457;-54
2023/05/25 12:46:30;;;;;;;21.88;5.32;;;18.60;58.00;;;;;;3962578;29;19936;-59
2023/05/25 12:49:27;;;;;;;19.88;6.03;;;18.60;58.20;;;;;;3973036;29;20097;-52
2023/05/25 12:52:10;;;;;;;21.90;5.30;;;18.60;59.10;;;;;;3957499;29;20062;-59
2023/05/25 12:54:51;;;;;;;21.20;4.53;;;18.60;57.80;;;;;;3967157;29;20080;-50
2023/05/25 12:57:35;;;;;;;20.13;5.70;;;18.60;58.00;;;;;;3972931;29;20058;-59
2023/05/25 13:00:16;;;;;;;19.92;4.75;;;18.60;58.00;;;;;;3971610;29;20567;-49
2023/05/25 13:02:58;;;;;;;17.15;4.15;;;18.60;57.90;;;;;;3974656;29;20069;-59
2023/05/25 13:05:40;;;;;;;18.85;5.00;;;18.60;58.10;;;;;;3973529;29;20080;-49
2023/05/25 13:08:22;;;;;;;19.67;5.25;;;18.60;58.20;;;;;;3973141;29;20506;-59
2023/05/25 13:11:03;;;;;;;18.35;5.40;;;18.60;58.10;;;;;;3972290;29;20062;-61
2023/05/25 13:13:44;;;;;;;16.70;5.22;;;18.70;58.00;;;;;;3972961;29;20060;-52
2023/05/25 13:16:26;;;;;;;21.30;5.43;;;18.70;57.90;;;;;;3972844;29;20053;-53
2023/05/25 13:19:07;;;;;;;23.30;5.63;;;18.70;58.00;;;;;;3972564;29;20107;-54
2023/05/25 13:21:50;;;;;;;20.65;5.35;;;18.70;57.90;;;;;;3972747;29;20478;-60
2023/05/25 13:24:32;;;;;;;22.08;5.80;;;18.70;58.00;;;;;;3972747;29;20088;-58
2023/05/25 13:27:13;;;;;;;23.20;6.28;;;18.70;58.00;;;;;;3972608;29;20219;-51
2023/05/25 13:29:54;;;;;;;18.67;5.18;;;18.70;58.00;;;;;;3958112;29;20058;-52
2023/05/25 13:32:36;;;;;;;21.08;5.80;;;18.80;58.20;;;;;;3960098;29;20475;-53
2023/05/25 13:35:22;;;;;;;22.83;6.00;;;18.80;57.90;;;;;;3961516;29;20139;-49
2023/05/25 13:38:04;;;;;;;17.25;5.72;;;18.80;58.00;;;;;;3973182;29;20138;-51
2023/05/25 13:40:45;;;;;;;23.63;5.28;;;18.80;57.50;;;;;;3972771;29;20204;-51
2023/05/25 13:43:26;;;;;;;21.52;5.03;;;18.80;57.70;;;;;;3971658;29;20061;-51
2023/05/25 13:46:08;;;;;;;;;;;18.80;58.40;;;;;;3972143;29;20050;-54
2023/05/25 13:48:58;;;;;;;16.50;4.85;;;18.80;57.50;;;;;;3971669;29;20601;-51
2023/05/25 13:51:40;;;;;;;14.88;5.10;;;18.90;58.90;;;;;;3961734;29;20506;-59
2023/05/25 13:54:23;;;;;;;17.85;5.03;;;18.90;57.80;;;;;;3971044;29;20058;-59
2023/05/25 13:57:06;;;;;;;13.77;5.00;;;18.80;57.20;;;;;;3972059;29;20084;-59
2023/05/25 13:59:47;;;;;;;16.70;5.88;;;18.90;57.40;;;;;;3971254;29;20054;-59
2023/05/25 14:02:30;;;;;;;16.88;4.90;;;18.80;57.20;;;;;;3971801;29;20058;-60
2023/05/25 14:05:11;;;;;;;22.23;6.00;;;18.80;57.10;;;;;;3973233;29;20391;-62
2023/05/25 14:07:53;;;;;;;20.95;5.30;;;18.80;57.70;;;;;;3971827;29;20061;-53
2023/05/25 14:10:38;;;;;;;21.65;6.05;;;18.80;57.30;;;;;;3971631;29;20063;-54